Time;durP1;ratioP1;P1;durP2;ratioP2;P2;SDS_P1;SDS_P2;PMS_P1;PMS_P2;Temp;Humidity;BMP_temperature;BMP_pressure;BME280_temperature;BME280_humidity;BME280_pressure;Samples;Min_cycle;Max_cycle;Signal;HPM_P1;HPM_P2
2022/01/19 00:00:08;;;;;;;2.15;1.47;;;;;;;7.68;46.70;100401.57;1743102;81;21389;-57
2022/01/19 00:02:37;;;;;;;2.75;1.35;;;;;;;7.66;46.72;100405.66;1740742;81;21558;-57
2022/01/19 00:05:05;;;;;;;2.83;1.62;;;;;;;7.67;46.71;100409.16;1760572;80;21022;-56
2022/01/19 00:07:31;;;;;;;1.85;1.47;;;;;;;7.66;46.72;100412.77;1760047;79;21113;-57
2022/01/19 00:10:03;;;;;;;1.50;1.35;;;;;;;7.64;46.70;100419.50;1740289;80;21111;-58
2022/01/19 00:12:26;;;;;;;1.72;1.40;;;;;;;7.64;46.68;100427.44;1750367;81;21015;-57
2022/01/19 00:14:52;;;;;;;1.65;1.30;;;;;;;7.64;46.70;100431.41;1754683;81;21514;-57
2022/01/19 00:17:19;;;;;;;2.80;2.25;;;;;;;7.64;46.69;100435.87;1746947;80;21007;-58
2022/01/19 00:19:45;;;;;;;2.45;1.85;;;;;;;7.62;46.68;100435.99;1747851;80;21525;-57
2022/01/19 00:22:11;;;;;;;1.77;1.55;;;;;;;7.62;46.68;100439.95;1751638;81;21112;-57
2022/01/19 00:24:40;;;;;;;1.65;1.50;;;;;;;7.61;46.68;100443.59;1736645;81;21022;-57
2022/01/19 00:27:07;;;;;;;1.67;1.47;;;;;;;7.60;46.66;100440.58;1739422;81;21050;-57
2022/01/19 00:29:33;;;;;;;2.62;1.47;;;;;;;7.60;46.65;100436.61;1745830;81;21047;-57
2022/01/19 00:31:59;;;;;;;2.35;1.85;;;;;;;7.60;46.63;100438.42;1748952;81;21089;-56
2022/01/19 00:34:26;;;;;;;2.55;1.60;;;;;;;7.58;46.64;100447.80;1754796;80;21086;-58
2022/01/19 00:36:52;;;;;;;2.20;1.50;;;;;;;7.58;46.65;100448.30;1762358;80;21462;-59
2022/01/19 00:39:18;;;;;;;2.45;1.42;;;;;;;7.57;46.64;100446.14;1767015;81;21079;-58
2022/01/19 00:41:45;;;;;;;1.57;1.17;;;;;;;7.57;46.67;100450.58;1764024;81;21486;-58
2022/01/19 00:44:11;;;;;;;1.82;1.37;;;;;;;7.56;46.64;100444.45;1756000;81;21049;-57
2022/01/19 00:46:37;;;;;;;1.90;1.47;;;;;;;7.55;46.65;100444.12;1745209;80;21931;-57
2022/01/19 00:49:04;;;;;;;1.77;1.35;;;;;;;7.55;46.65;100445.90;1743602;80;21054;-56
2022/01/19 00:51:30;;;;;;;2.27;1.47;;;;;;;7.53;46.64;100448.67;1768281;80;21577;-57
2022/01/19 00:53:56;;;;;;;2.17;1.45;;;;;;;7.54;46.63;100445.56;1770870;80;21007;-57
2022/01/19 00:56:23;;;;;;;1.77;1.32;;;;;;;7.53;46.61;100455.28;1760601;79;21100;-58
2022/01/19 00:58:50;;;;;;;1.60;1.30;;;;;;;7.53;46.60;100453.96;1763965;80;21074;-60
2022/01/19 01:01:16;;;;;;;2.17;1.60;;;;;;;7.52;46.60;100457.59;1761439;80;21846;-57
2022/01/19 01:03:43;;;;;;;1.35;1.20;;;;;;;7.52;46.60;100462.88;1757634;80;21042;-58
2022/01/19 01:06:09;;;;;;;1.85;1.30;;;;;;;7.52;46.60;100463.37;1745011;80;21010;-58
2022/01/19 01:08:37;;;;;;;2.17;1.65;;;;;;;7.51;46.59;100458.55;1767014;80;21061;-58
2022/01/19 01:11:04;;;;;;;1.32;1.20;;;;;;;7.50;46.60;100453.41;1758510;80;21146;-56
2022/01/19 01:15:26;;;;;;;2.62;1.90;;;;;;;7.48;46.61;100457.01;1765153;80;21299;-57
2022/01/19 01:16:05;;;;;;;2.10;1.40;;;;;;;7.48;46.60;100464.94;1783611;79;21073;-57
2022/01/19 01:18:30;;;;;;;1.85;1.50;;;;;;;7.47;46.60;100461.09;1739272;80;21026;-57
2022/01/19 01:20:59;;;;;;;1.37;1.25;;;;;;;7.47;46.58;100461.09;1760723;80;21082;-57
2022/01/19 01:23:28;;;;;;;1.90;1.42;;;;;;;7.46;46.58;100459.44;1769066;80;21570;-58
2022/01/19 01:25:55;;;;;;;2.25;1.70;;;;;;;7.46;46.57;100468.69;1766757;80;21108;-57
2022/01/19 01:28:22;;;;;;;1.72;1.50;;;;;;;7.45;46.58;100465.68;1759286;79;21046;-56
2022/01/19 01:30:50;;;;;;;1.75;1.62;;;;;;;7.44;46.58;100460.05;1741078;80;21094;-56
2022/01/19 01:33:18;;;;;;;1.67;1.35;;;;;;;7.43;46.57;100461.84;1769378;80;21104;-57
2022/01/19 01:35:45;;;;;;;1.95;1.50;;;;;;;7.43;46.58;100461.01;1768392;79;23330;-57
2022/01/19 01:38:12;;;;;;;1.90;1.70;;;;;;;7.42;46.58;100461.99;1763936;80;20997;-57
2022/01/19 01:40:39;;;;;;;1.80;1.40;;;;;;;7.41;46.57;100453.20;1679579;84;21019;-58
2022/01/19 01:43:07;;;;;;;2.12;1.52;;;;;;;7.40;46.57;100451.54;1757346;80;21097;-57
2022/01/19 01:45:38;;;;;;;2.52;1.50;;;;;;;7.40;46.57;100454.19;1744118;80;21519;-58
2022/01/19 01:48:24;;;;;;;2.12;1.65;;;;;;;7.39;46.55;100459.59;1756876;80;21141;-56
2022/01/19 01:53:26;;;;;;;2.08;1.52;;;;;;;7.39;46.55;100455.62;1767226;80;21539;-58
2022/01/19 01:56:05;;;;;;;1.87;1.62;;;;;;;7.36;46.55;100451.91;1748983;80;21503;-57
2022/01/19 01:58:41;;;;;;;2.50;1.40;;;;;;;7.36;46.56;100454.55;1704326;83;21530;-57
2022/01/19 02:01:17;;;;;;;2.10;1.60;;;;;;;7.35;46.56;100455.54;1716367;80;21502;-56
2022/01/19 02:03:45;;;;;;;1.72;1.40;;;;;;;7.34;46.56;100458.67;1774851;79;21026;-57
2022/01/19 02:06:31;;;;;;;1.85;1.47;;;;;;;7.34;46.56;100447.24;1769794;80;20999;-56
2022/01/19 02:15:48;;;;;;;1.40;1.30;;;;;;;7.32;46.54;100455.78;1744025;80;21046;-57
2022/01/19 02:22:02;;;;;;;2.77;1.70;;;;;;;7.27;46.55;100451.73;1769463;80;21050;-55
2022/01/19 02:24:31;;;;;;;2.12;1.50;;;;;;;7.26;46.57;100450.08;1765581;80;21010;-57
2022/01/19 02:28:56;;;;;;;3.45;1.60;;;;;;;7.25;46.58;100454.98;1747785;80;21529;-58
2022/01/19 02:40:44;;;;;;;2.55;1.55;;;;;;;7.21;46.57;100466.79;1744025;80;23246;-59
2022/01/19 02:43:20;;;;;;;2.02;1.47;;;;;;;7.20;46.56;100458.49;1760822;80;21653;-58
2022/01/19 02:51:08;;;;;;;2.40;1.70;;;;;;;7.18;46.57;100453.81;1750485;80;21613;-58
2022/01/19 02:53:36;;;;;;;2.30;1.60;;;;;;;7.18;46.56;100454.31;1752094;80;21212;-57
2022/01/19 02:56:09;;;;;;;2.65;1.75;;;;;;;7.17;46.56;100449.52;1770619;80;21026;-57
2022/01/19 02:58:32;;;;;;;2.22;1.70;;;;;;;7.16;46.56;100450.47;1753417;80;21597;-57
2022/01/19 03:09:16;;;;;;;2.00;1.50;;;;;;;7.13;46.55;100452.06;1758649;80;21038;-57
2022/01/19 03:11:43;;;;;;;2.17;1.77;;;;;;;7.13;46.56;100448.56;1747485;80;21502;-57
2022/01/19 03:14:09;;;;;;;2.33;1.77;;;;;;;7.12;46.57;100441.62;1749052;80;21018;-57
2022/01/19 03:16:36;;;;;;;2.80;1.72;;;;;;;7.12;46.57;100441.62;1754125;80;21045;-56
2022/01/19 03:19:03;;;;;;;3.05;1.60;;;;;;;7.11;46.56;100430.22;1772960;80;21212;-57
2022/01/19 03:21:30;;;;;;;3.17;2.10;;;;;;;7.10;46.55;100419.28;1767821;80;21073;-58
2022/01/19 03:23:57;;;;;;;3.22;1.80;;;;;;;7.11;46.53;100418.79;1761391;80;21105;-56
2022/01/19 03:26:24;;;;;;;2.72;1.80;;;;;;;7.11;46.53;100419.66;1786925;79;20979;-57
2022/01/19 03:29:04;;;;;;;2.42;1.87;;;;;;;7.11;46.52;100426.26;1712204;82;21042;-56
2022/01/19 03:31:31;;;;;;;3.83;2.30;;;;;;;7.09;46.50;100418.95;1744018;82;21124;-57
2022/01/19 03:33:57;;;;;;;2.80;2.02;;;;;;;7.08;46.50;100413.29;1708359;82;21567;-58
2022/01/19 03:36:24;;;;;;;1.67;1.30;;;;;;;7.08;46.50;100426.50;1759922;80;21014;-56
2022/01/19 03:38:50;;;;;;;2.83;1.98;;;;;;;7.07;46.50;100430.13;1681247;84;22297;-55
2022/01/19 03:41:16;;;;;;;2.83;1.77;;;;;;;7.07;46.50;100430.13;1756431;80;21588;-57
2022/01/19 03:43:43;;;;;;;2.92;2.00;;;;;;;7.06;46.48;100443.80;1773100;80;21143;-57
2022/01/19 03:46:15;;;;;;;3.05;1.87;;;;;;;7.06;46.49;100437.69;1771038;80;21546;-55
2022/01/19 03:48:57;;;;;;;2.15;1.57;;;;;;;7.05;46.51;100432.89;1759692;80;21006;-55
2022/01/19 03:51:20;;;;;;;1.90;1.47;;;;;;;7.05;46.48;100435.53;1763273;80;21627;-57
2022/01/19 03:53:48;;;;;;;2.27;1.90;;;;;;;7.03;46.47;100425.58;1761679;80;21104;-56
2022/01/19 03:56:15;;;;;;;1.70;1.60;;;;;;;7.05;46.49;100422.78;1757264;80;21401;-57
2022/01/19 03:58:42;;;;;;;2.55;1.80;;;;;;;7.04;46.45;100431.20;1782745;80;21003;-58
2022/01/19 04:01:09;;;;;;;2.92;1.72;;;;;;;7.03;46.47;100437.47;1777012;78;21393;-57
2022/01/19 04:06:28;;;;;;;2.50;1.65;;;;;;;7.03;46.43;100445.85;1776749;78;21129;-57
2022/01/19 04:08:53;;;;;;;2.20;1.77;;;;;;;7.02;46.43;100443.70;1779461;80;21521;-56
2022/01/19 04:11:21;;;;;;;2.40;1.50;;;;;;;7.02;46.44;100448.16;1767287;80;21097;-58
2022/01/19 04:14:21;;;;;;;2.33;1.60;;;;;;;7.01;46.44;100449.11;1757527;80;21022;-57
2022/01/19 04:16:26;;;;;;;2.62;1.65;;;;;;;7.00;46.44;100440.84;1763147;80;21065;-57
2022/01/19 04:19:01;;;;;;;1.87;1.40;;;;;;;7.00;46.44;100444.80;1759229;80;20990;-57
2022/01/19 04:21:20;;;;;;;2.45;1.60;;;;;;;6.99;46.43;100452.36;1784212;80;21789;-56
2022/01/19 04:23:48;;;;;;;2.33;1.62;;;;;;;6.99;46.45;100456.33;1787488;80;21013;-56
2022/01/19 04:26:14;;;;;;;2.58;1.90;;;;;;;6.98;46.44;100456.81;1784381;80;21033;-57
2022/01/19 04:28:42;;;;;;;2.10;1.65;;;;;;;6.97;46.43;100459.09;1776765;80;21006;-57
2022/01/19 04:31:09;;;;;;;2.27;1.80;;;;;;;6.97;46.44;100450.33;1773473;78;21115;-58
2022/01/19 04:33:41;;;;;;;2.77;1.95;;;;;;;6.97;46.43;100451.66;1773487;80;21220;-56
2022/01/19 04:36:26;;;;;;;2.40;1.77;;;;;;;6.97;46.40;100457.77;1772942;80;21088;-57
2022/01/19 05:05:24;;;;;;;2.70;1.50;;;;;;;6.87;46.42;100496.48;1747808;80;21034;-56
2022/01/19 05:15:47;;;;;;;4.08;2.30;;;;;;;6.85;46.44;100490.00;1751989;79;21023;-56
2022/01/19 05:18:17;;;;;;;3.05;2.00;;;;;;;6.83;46.46;100482.68;1742726;80;20987;-56
2022/01/19 05:20:45;;;;;;;2.75;2.00;;;;;;;6.83;46.45;100481.85;1756510;80;21566;-56
2022/01/19 05:23:14;;;;;;;2.75;2.00;;;;;;;6.82;46.43;100477.06;1745548;80;21053;-55
2022/01/19 05:25:41;;;;;;;2.45;1.80;;;;;;;6.83;46.45;100484.49;1763050;80;21156;-57
2022/01/19 05:28:09;;;;;;;3.17;2.22;;;;;;;6.83;46.42;100485.81;1773206;80;21022;-57
2022/01/19 05:30:37;;;;;;;2.42;2.00;;;;;;;6.82;46.43;100487.63;1750743;80;21049;-56
2022/01/19 05:33:04;;;;;;;2.37;1.82;;;;;;;6.81;46.42;100478.01;1762317;81;21062;-57
2022/01/19 05:35:30;;;;;;;2.70;2.10;;;;;;;6.82;46.42;100477.06;1710115;82;21046;-59
2022/01/19 05:37:59;;;;;;;3.08;2.15;;;;;;;6.82;46.39;100475.73;1739532;80;21155;-57
2022/01/19 05:40:33;;;;;;;2.33;1.70;;;;;;;6.82;46.38;100473.09;1717709;80;21046;-57
2022/01/19 05:43:01;;;;;;;2.30;1.52;;;;;;;6.82;46.38;100476.23;1756107;80;21042;-56
2022/01/19 05:45:28;;;;;;;2.52;1.62;;;;;;;6.81;46.36;100467.45;1763014;79;21144;-57
2022/01/19 05:47:57;;;;;;;2.55;1.90;;;;;;;6.82;46.35;100465.67;1758463;80;21571;-58
2022/01/19 05:50:24;;;;;;;2.75;2.17;;;;;;;6.81;46.35;100466.12;1753293;80;21158;-58
2022/01/19 05:52:58;;;;;;;3.83;2.17;;;;;;;6.80;46.35;100467.11;1760165;80;21616;-57
2022/01/19 05:55:25;;;;;;;2.98;2.20;;;;;;;6.80;46.35;100463.14;1761868;79;21118;-57
2022/01/19 05:57:52;;;;;;;3.00;2.45;;;;;;;6.80;46.36;100463.14;1759616;80;21424;-56
2022/01/19 06:00:18;;;;;;;3.22;2.55;;;;;;;6.80;46.34;100460.50;1761470;80;21026;-57
2022/01/19 06:02:52;;;;;;;2.47;1.77;;;;;;;6.80;46.34;100469.75;1772170;80;21342;-57
2022/01/19 06:05:20;;;;;;;3.15;2.35;;;;;;;6.80;46.34;100476.35;1743577;80;21073;-57
2022/01/19 06:07:49;;;;;;;2.15;1.60;;;;;;;6.81;46.32;100475.86;1765702;80;21042;-56
2022/01/19 06:10:42;;;;;;;3.20;2.08;;;;;;;6.80;46.31;100485.59;1744379;80;21585;-58
2022/01/19 06:12:58;;;;;;;3.95;2.37;;;;;;;6.81;46.31;100482.46;1753297;80;21010;-57
2022/01/19 06:15:25;;;;;;;3.22;2.40;;;;;;;6.80;46.29;100476.35;1744488;80;21087;-57
2022/01/19 06:17:52;;;;;;;3.47;2.60;;;;;;;6.82;46.27;100470.95;1752999;80;21010;-58
2022/01/19 06:20:19;;;;;;;2.67;1.80;;;;;;;6.81;46.28;100462.16;1753563;80;21019;-58
2022/01/19 06:22:45;;;;;;;3.17;2.37;;;;;;;6.83;46.26;100476.56;1755549;80;21035;-59
2022/01/19 06:25:12;;;;;;;2.95;2.35;;;;;;;6.83;46.25;100475.25;1768124;80;21043;-57
2022/01/19 06:27:39;;;;;;;2.55;2.12;;;;;;;6.84;46.25;100471.66;1773025;80;21944;-58
2022/01/19 06:30:07;;;;;;;2.90;2.02;;;;;;;6.84;46.24;100486.19;1706061;84;21019;-57
2022/01/19 06:32:34;;;;;;;2.87;2.17;;;;;;;6.85;46.24;100480.75;1760638;80;21055;-56
2022/01/19 06:35:01;;;;;;;2.62;2.37;;;;;;;6.85;46.22;100479.92;1750275;80;21082;-57
2022/01/19 06:37:32;;;;;;;3.67;2.50;;;;;;;6.85;46.22;100479.92;1764611;80;20991;-57
2022/01/19 06:40:02;;;;;;;3.15;2.00;;;;;;;6.87;46.23;100485.91;1761615;80;21139;-62
2022/01/19 06:42:29;;;;;;;3.33;2.10;;;;;;;6.87;46.20;100476.18;1765664;79;21531;-59
2022/01/19 06:44:55;;;;;;;2.98;2.30;;;;;;;6.89;46.18;100476.92;1705999;84;21027;-56
2022/01/19 06:47:23;;;;;;;2.47;2.05;;;;;;;6.89;46.14;100482.66;1771401;80;21053;-57
2022/01/19 06:49:49;;;;;;;3.33;2.20;;;;;;;6.91;46.14;100478.58;1747218;80;21022;-57
2022/01/19 06:52:18;;;;;;;3.65;2.60;;;;;;;6.92;46.13;100489.52;1746358;80;21153;-57
2022/01/19 06:54:44;;;;;;;3.20;2.55;;;;;;;6.94;46.11;100487.59;1750428;80;21058;-56
2022/01/19 06:57:11;;;;;;;3.20;2.25;;;;;;;6.95;46.11;100490.56;1755643;80;21085;-57
2022/01/19 07:02:10;;;;;;;3.35;2.45;;;;;;;7.01;46.06;100471.56;1839187;76;26503;-58
2022/01/19 07:04:46;;;;;;;3.47;2.60;;;;;;;6.98;46.06;100478.44;1813296;79;21427;-58
2022/01/19 07:07:07;;;;;;;4.20;2.70;;;;;;;7.00;46.03;100469.91;1806680;79;23270;-58
2022/01/19 07:09:36;;;;;;;3.62;2.62;;;;;;;7.01;46.01;100468.92;1814704;79;21522;-58
2022/01/19 07:12:03;;;;;;;3.67;3.00;;;;;;;7.03;46.02;100470.95;1817349;79;21057;-58
2022/01/19 07:14:33;;;;;;;3.10;2.37;;;;;;;7.04;45.99;100470.83;1814734;79;21594;-58
2022/01/19 07:16:59;;;;;;;5.00;3.15;;;;;;;7.05;45.98;100457.99;1811835;79;20985;-58
2022/01/19 07:19:26;;;;;;;4.67;2.77;;;;;;;7.06;45.95;100467.58;1806220;79;21863;-56
2022/01/19 07:21:54;;;;;;;3.58;2.60;;;;;;;7.08;45.94;100464.81;1811119;79;20998;-59
2022/01/19 07:24:20;;;;;;;3.25;2.37;;;;;;;7.08;45.93;100461.68;1795513;77;21497;-58
2022/01/19 07:26:47;;;;;;;4.42;3.30;;;;;;;7.04;45.91;100456.30;1802914;77;21113;-59
2022/01/19 07:29:14;;;;;;;6.12;3.52;;;;;;;7.11;45.91;100471.17;1788303;79;21076;-58
2022/01/19 07:31:42;;;;;;;3.65;3.02;;;;;;;7.12;45.89;100470.19;1801528;79;21220;-59
2022/01/19 07:34:09;;;;;;;3.92;2.95;;;;;;;7.14;46.33;100466.11;1810814;77;21029;-56
2022/01/19 07:36:36;;;;;;;3.62;3.08;;;;;;;7.15;46.46;100463.34;1807820;79;21487;-58
2022/01/19 07:39:04;;;;;;;4.17;2.90;;;;;;;7.17;46.51;100457.45;1802952;77;21001;-59
2022/01/19 07:41:31;;;;;;;4.05;2.85;;;;;;;7.18;46.47;100456.46;1767584;80;21049;-57
2022/01/19 07:43:59;;;;;;;3.62;2.70;;;;;;;7.20;46.44;100455.84;1806456;77;21208;-57
2022/01/19 07:46:44;;;;;;;3.55;2.87;;;;;;;7.23;46.41;100446.35;1794599;77;21088;-57
2022/01/19 07:49:18;;;;;;;3.90;3.15;;;;;;;7.23;46.39;100450.31;1799824;77;21497;-56
2022/01/19 07:51:55;;;;;;;4.05;2.92;;;;;;;7.25;46.33;100454.98;1804100;78;21026;-57
2022/01/19 07:54:23;;;;;;;4.42;3.30;;;;;;;7.27;46.30;100445.61;1792367;77;20985;-57
2022/01/19 07:56:54;;;;;;;6.03;3.12;;;;;;;7.28;46.25;100445.49;1794902;77;21541;-58
2022/01/19 07:59:28;;;;;;;5.28;3.70;;;;;;;7.32;46.20;100441.25;1801333;78;21021;-59
2022/01/19 08:01:58;;;;;;;4.53;3.12;;;;;;;7.34;46.19;100443.28;1785461;79;21037;-58
2022/01/19 08:04:26;;;;;;;5.08;3.30;;;;;;;7.36;46.15;100434.73;1763832;79;21001;-59
2022/01/19 08:06:54;;;;;;;5.45;3.80;;;;;;;7.36;46.10;100430.30;1807395;79;21062;-57
2022/01/19 08:09:22;;;;;;;4.75;3.17;;;;;;;7.38;46.06;100432.80;1790672;79;21129;-57
2022/01/19 08:11:48;;;;;;;4.62;3.02;;;;;;;7.40;46.04;100438.81;1807950;79;21550;-59
2022/01/19 08:14:17;;;;;;;5.35;3.60;;;;;;;7.42;46.00;100432.91;1802767;78;21084;-57
2022/01/19 08:16:43;;;;;;;4.28;3.30;;;;;;;7.44;45.97;100436.27;1794660;79;21028;-59
2022/01/19 08:19:10;;;;;;;5.28;3.90;;;;;;;7.44;45.93;100438.91;1789991;79;21555;-58
2022/01/19 08:21:37;;;;;;;6.05;3.65;;;;;;;7.47;45.88;100435.98;1797356;79;21137;-59
2022/01/19 08:24:05;;;;;;;4.37;3.40;;;;;;;7.49;45.86;100436.69;1808472;79;21022;-57
2022/01/19 08:26:32;;;;;;;4.33;3.25;;;;;;;7.51;45.84;100436.56;1795052;79;20980;-58
2022/01/19 08:29:00;;;;;;;5.87;3.62;;;;;;;7.52;45.82;100433.80;1804598;79;21021;-58
2022/01/19 08:31:27;;;;;;;5.72;3.58;;;;;;;7.54;45.80;100431.85;1790344;79;21018;-57
2022/01/19 08:34:04;;;;;;;4.30;3.40;;;;;;;7.56;45.74;100421.98;1714214;82;21209;-58
2022/01/19 08:36:33;;;;;;;6.22;3.87;;;;;;;7.61;45.74;100429.05;1788757;78;21057;-57
2022/01/19 08:39:07;;;;;;;6.20;3.92;;;;;;;7.67;45.67;100425.03;1786903;77;21108;-59
2022/01/19 08:41:36;;;;;;;5.17;3.40;;;;;;;7.73;45.66;100415.24;1826610;77;21119;-58
2022/01/19 08:44:03;;;;;;;5.05;3.80;;;;;;;7.79;45.63;100409.41;1806910;79;21031;-59
2022/01/19 08:46:29;;;;;;;5.50;3.90;;;;;;;7.87;45.59;100407.42;1797590;79;21129;-57
2022/01/19 08:49:07;;;;;;;6.07;4.50;;;;;;;7.94;45.54;100399.30;1789369;79;21028;-57
2022/01/19 08:51:38;;;;;;;5.95;4.10;;;;;;;8.02;45.52;100396.81;1798683;79;21032;-59
2022/01/19 08:54:08;;;;;;;5.25;3.65;;;;;;;8.11;45.48;100399.61;1804850;79;21086;-56
2022/01/19 08:56:37;;;;;;;6.20;3.58;;;;;;;8.20;45.43;100398.80;1793499;79;21544;-58
2022/01/19 08:59:03;;;;;;;5.53;4.00;;;;;;;8.28;45.40;100397.13;1796866;79;21120;-58
2022/01/19 09:01:30;;;;;;;4.42;3.85;;;;;;;8.38;45.36;100395.84;1785695;79;21002;-58
2022/01/19 09:03:57;;;;;;;4.50;3.67;;;;;;;8.47;45.30;100390.22;1791670;79;21068;-58
2022/01/19 09:06:24;;;;;;;5.75;4.17;;;;;;;8.57;45.25;100398.99;1788356;79;21140;-58
2022/01/19 09:08:51;;;;;;;5.05;3.75;;;;;;;8.69;45.18;100398.86;1784943;78;21073;-57
2022/01/19 09:11:17;;;;;;;5.17;3.80;;;;;;;8.81;45.11;100393.78;1787797;79;21554;-58
2022/01/19 09:13:44;;;;;;;4.80;3.60;;;;;;;8.93;45.04;100391.32;1795305;79;21074;-58
2022/01/19 09:16:11;;;;;;;5.80;3.98;;;;;;;9.05;44.94;100386.20;1783857;79;21143;-58
2022/01/19 09:18:37;;;;;;;6.08;3.95;;;;;;;9.17;44.87;100385.55;1796572;79;21558;-59
2022/01/19 09:21:03;;;;;;;5.08;3.77;;;;;;;9.27;44.81;100387.34;1785144;79;21127;-58
2022/01/19 09:23:30;;;;;;;5.80;4.28;;;;;;;9.34;44.74;100383.97;1795273;79;21140;-59
2022/01/19 09:25:57;;;;;;;5.20;3.85;;;;;;;9.42;44.71;100373.97;1794251;79;21005;-57
2022/01/19 09:28:23;;;;;;;5.90;3.80;;;;;;;9.48;44.71;100380.01;1791432;79;21026;-57
2022/01/19 09:30:50;;;;;;;5.75;4.25;;;;;;;9.54;44.66;100375.47;1781993;79;21044;-58
2022/01/19 09:33:20;;;;;;;5.28;4.30;;;;;;;9.58;44.64;100363.59;1793082;79;21037;-56
2022/01/19 09:35:53;;;;;;;5.12;3.77;;;;;;;9.64;44.60;100355.53;1793129;77;23331;-58
2022/01/19 09:38:19;;;;;;;6.10;4.12;;;;;;;9.69;44.56;100348.45;1794724;77;21081;-57
2022/01/19 09:40:46;;;;;;;5.60;3.95;;;;;;;9.73;44.54;100357.78;1785157;77;21014;-56
2022/01/19 09:43:13;;;;;;;5.40;4.10;;;;;;;9.76;44.52;100357.50;1799272;79;20986;-58
2022/01/19 09:45:40;;;;;;;5.58;3.67;;;;;;;9.78;44.44;100359.51;1777514;79;21057;-57
2022/01/19 09:48:06;;;;;;;5.50;4.10;;;;;;;9.81;44.41;100363.17;1801393;77;21079;-58
2022/01/19 09:50:33;;;;;;;5.60;4.05;;;;;;;9.82;44.38;100362.20;1787588;79;21050;-56
2022/01/19 09:53:05;;;;;;;5.00;3.85;;;;;;;9.84;44.34;100365.55;1787807;77;21101;-58
2022/01/19 09:55:32;;;;;;;5.60;4.10;;;;;;;9.85;44.32;100365.91;1784989;77;21043;-57
2022/01/19 09:58:00;;;;;;;4.67;3.72;;;;;;;9.87;44.31;100359.09;1791918;78;20987;-57
2022/01/19 10:00:27;;;;;;;5.37;4.17;;;;;;;9.87;44.29;100351.99;1779887;79;21103;-57
2022/01/19 10:03:17;;;;;;;5.72;4.03;;;;;;;9.89;44.25;100353.15;1786475;79;21114;-58
2022/01/19 10:06:05;;;;;;;5.87;3.92;;;;;;;9.89;44.21;100346.05;1778635;78;21083;-58
2022/01/19 10:08:56;;;;;;;5.28;4.20;;;;;;;9.90;44.16;100334.93;1795332;79;21005;-59
2022/01/19 10:16:58;;;;;;;5.85;4.10;;;;;;;9.90;44.17;100328.30;1789866;79;21525;-59
2022/01/19 10:17:07;;;;;;;5.15;3.92;;;;;;;9.93;44.13;100331.95;1754161;80;20169;-60
2022/01/19 10:19:36;;;;;;;6.62;4.37;;;;;;;9.92;44.13;100325.82;1770252;78;21017;-58
2022/01/19 10:22:19;;;;;;;5.83;4.28;;;;;;;9.92;44.10;100327.15;1789075;78;21572;-58
2022/01/19 10:24:56;;;;;;;5.22;3.67;;;;;;;9.93;44.09;100318.22;1779214;79;21079;-57
2022/01/19 10:27:38;;;;;;;5.40;3.92;;;;;;;9.94;44.07;100301.29;1794589;78;21935;-59
2022/01/19 10:30:10;;;;;;;6.10;4.03;;;;;;;9.96;44.06;100297.99;1781181;80;21037;-60
2022/01/19 10:32:46;;;;;;;5.72;4.12;;;;;;;9.98;44.02;100298.67;1770495;79;21016;-58
2022/01/19 10:35:27;;;;;;;4.75;3.50;;;;;;;10.01;43.96;100301.04;1783398;79;21068;-59
2022/01/19 10:38:18;;;;;;;5.22;3.85;;;;;;;10.03;43.92;100291.10;1756582;79;21497;-59
2022/01/19 10:41:05;;;;;;;5.28;4.10;;;;;;;10.08;43.88;100295.13;1774918;80;21200;-58
2022/01/19 10:43:44;;;;;;;5.90;3.85;;;;;;;10.12;43.81;100302.66;1772039;80;21115;-59
2022/01/19 10:46:25;;;;;;;5.12;3.52;;;;;;;10.16;43.75;100301.36;1774076;79;21049;-58
2022/01/19 10:49:01;;;;;;;4.90;3.70;;;;;;;10.21;43.69;100299.56;1770075;80;21068;-59
2022/01/19 10:51:37;;;;;;;5.17;3.80;;;;;;;10.25;43.69;100303.58;1748517;80;21017;-58
2022/01/19 10:54:21;;;;;;;5.00;3.67;;;;;;;10.27;43.67;100288.33;1760789;80;21092;-59
2022/01/19 10:56:54;;;;;;;6.72;3.80;;;;;;;10.30;43.64;100281.42;1775326;79;21600;-59
2022/01/19 10:59:25;;;;;;;5.87;3.95;;;;;;;10.33;43.62;100286.91;1772588;80;20954;-59
2022/01/19 11:01:58;;;;;;;5.47;3.95;;;;;;;10.36;43.58;100286.62;1766169;79;21078;-59
2022/01/19 11:04:31;;;;;;;4.35;3.70;;;;;;;10.40;43.55;100284.82;1788445;78;21073;-60
2022/01/19 11:07:13;;;;;;;5.22;3.47;;;;;;;10.45;43.53;100288.83;1793586;78;21123;-59
2022/01/19 11:09:46;;;;;;;6.08;4.08;;;;;;;10.47;43.50;100298.81;1782643;78;21046;-58
2022/01/19 11:12:16;;;;;;;4.97;3.65;;;;;;;10.48;43.49;100289.36;1789881;79;21081;-61
2022/01/19 11:14:45;;;;;;;4.53;3.62;;;;;;;10.51;43.45;100291.73;1779163;78;21425;-58
2022/01/19 11:17:11;;;;;;;5.22;4.00;;;;;;;10.55;43.43;100291.75;1785605;79;21045;-58
2022/01/19 11:19:39;;;;;;;5.75;3.90;;;;;;;10.59;43.42;100287.80;1787200;79;21123;-58
2022/01/19 11:22:20;;;;;;;5.65;4.10;;;;;;;10.65;43.33;100285.02;1780132;79;21030;-59
2022/01/19 11:25:13;;;;;;;4.65;3.67;;;;;;;10.70;43.31;100269.45;1777280;79;21018;-57
2022/01/19 11:27:43;;;;;;;5.50;3.92;;;;;;;10.80;43.23;100266.69;1785901;79;21049;-59
2022/01/19 11:30:27;;;;;;;5.47;4.12;;;;;;;10.91;43.16;100258.92;1792770;79;21561;-59
2022/01/19 11:33:24;;;;;;;;;;;;;;;11.02;43.15;100256.00;1795391;79;21557;-57
2022/01/19 11:36:04;;;;;;;4.87;3.92;;;;;;;11.12;43.10;100243.41;1793145;79;20445;-58
2022/01/19 11:38:43;;;;;;;5.53;3.80;;;;;;;11.21;43.06;100237.14;1719439;81;21642;-57
2022/01/19 11:41:19;;;;;;;5.37;3.90;;;;;;;11.30;42.98;100241.16;1738285;80;21042;-57
2022/01/19 11:43:51;;;;;;;5.60;4.30;;;;;;;11.37;42.90;100235.03;1789163;77;21042;-59
2022/01/19 11:46:32;;;;;;;5.40;4.15;;;;;;;11.43;42.84;100226.91;1782284;79;23291;-58
2022/01/19 11:49:00;;;;;;;6.25;4.00;;;;;;;11.47;42.80;100218.93;1787771;77;21465;-58
2022/01/19 11:51:42;;;;;;;5.85;4.05;;;;;;;11.55;42.75;100219.45;1790936;79;21584;-59
2022/01/19 11:54:22;;;;;;;5.53;4.12;;;;;;;11.58;42.73;100214.64;1801855;79;21065;-60
2022/01/19 11:57:09;;;;;;;4.83;3.87;;;;;;;11.65;42.67;100212.65;1791312;79;21040;-60
2022/01/19 11:59:59;;;;;;;4.78;3.83;;;;;;;11.69;42.63;100209.52;1782254;77;21201;-59
2022/01/19 12:02:36;;;;;;;5.22;3.90;;;;;;;11.72;42.62;100204.35;1793600;77;21620;-58
2022/01/19 12:05:24;;;;;;;4.87;3.70;;;;;;;11.77;42.58;100215.34;1798999;77;21030;-59
2022/01/19 12:07:57;;;;;;;6.33;4.40;;;;;;;11.80;42.55;100213.20;1798328;77;21064;-59
2022/01/19 12:10:37;;;;;;;7.45;4.08;;;;;;;11.84;42.52;100212.38;1795081;78;21057;-59
2022/01/19 12:13:42;;;;;;;5.55;4.10;;;;;;;11.87;42.50;100213.36;1791642;79;21392;-61
2022/01/19 12:16:37;;;;;;;5.60;3.47;;;;;;;11.89;42.46;100211.39;1773234;77;21631;-60
2022/01/19 12:18:57;;;;;;;5.25;3.47;;;;;;;11.91;42.47;100217.38;1797039;77;21093;-59
2022/01/19 12:21:49;;;;;;;5.22;3.77;;;;;;;11.91;42.47;100214.72;1787031;79;21092;-59
2022/01/19 12:24:41;;;;;;;4.53;4.00;;;;;;;11.91;42.47;100209.39;1778535;79;21062;-60
2022/01/19 12:27:19;;;;;;;5.83;4.03;;;;;;;11.93;42.48;100209.23;1792829;79;21883;-59
2022/01/19 12:29:52;;;;;;;6.00;4.28;;;;;;;11.93;42.48;100207.39;1783883;79;21546;-58
2022/01/19 12:32:27;;;;;;;4.80;3.92;;;;;;;11.94;42.52;100213.58;1777143;79;21639;-60
2022/01/19 12:34:57;;;;;;;5.45;4.08;;;;;;;11.94;42.52;100219.73;1785028;77;21033;-60
2022/01/19 12:37:50;;;;;;;5.30;3.70;;;;;;;11.95;42.51;100225.37;1776334;79;21030;-59
2022/01/19 12:40:35;;;;;;;5.22;3.67;;;;;;;11.95;42.54;100227.20;1783812;79;21158;-59
2022/01/19 12:43:05;;;;;;;5.35;4.00;;;;;;;11.95;42.59;100229.88;1791503;79;21088;-58
2022/01/19 12:45:48;;;;;;;5.72;3.77;;;;;;;11.94;42.60;100226.38;1790019;79;21050;-60
2022/01/19 12:48:33;;;;;;;5.13;3.50;;;;;;;11.94;42.62;100221.56;1795065;77;21061;-58
2022/01/19 12:50:59;;;;;;;5.45;4.00;;;;;;;11.93;42.62;100219.38;1788762;79;21076;-59
2022/01/19 12:53:26;;;;;;;4.70;3.85;;;;;;;11.90;42.67;100214.41;1801924;78;21089;-60
2022/01/19 12:55:58;;;;;;;4.50;3.80;;;;;;;11.88;42.70;100215.51;1791431;79;21045;-59
2022/01/19 12:58:32;;;;;;;4.97;3.90;;;;;;;11.86;42.73;100213.04;1775903;79;21062;-63
2022/01/19 13:01:01;;;;;;;4.97;3.92;;;;;;;11.84;42.74;100209.71;1782789;79;21014;-60
2022/01/19 13:03:40;;;;;;;5.28;3.98;;;;;;;11.81;42.77;100211.36;1797421;79;21015;-59
2022/01/19 13:06:13;;;;;;;5.45;3.85;;;;;;;11.77;42.78;100204.70;1801771;79;21026;-60
2022/01/19 13:09:27;;;;;;;5.03;3.98;;;;;;;11.75;42.82;100201.38;1781415;79;21580;-60